createdAt,value
2018-12-12T00:02:00.148Z,95055.80
2018-12-12T00:04:32.766Z,95059.38
2018-12-12T00:07:03.455Z,95067.55
2018-12-12T00:09:35.480Z,95063.52
2018-12-12T00:12:06.386Z,95063.30
2018-12-12T00:14:37.443Z,95065.72
2018-12-12T00:17:08.254Z,95059.73
2018-12-12T00:19:39.023Z,95065.16
2018-12-12T00:22:09.869Z,95062.59
2018-12-12T00:24:40.685Z,95062.36
2018-12-12T00:27:11.355Z,95069.16
2018-12-12T00:29:41.919Z,95074.41
2018-12-12T00:32:12.925Z,95076.53
2018-12-12T00:34:43.517Z,95077.28
2018-12-12T00:37:14.330Z,95082.05
2018-12-12T00:39:44.961Z,95075.95
2018-12-12T00:42:15.903Z,95075.44
2018-12-12T00:44:46.931Z,95069.31
2018-12-12T00:47:18.032Z,95071.59
2018-12-12T00:49:48.993Z,95071.95
2018-12-12T00:52:19.576Z,95070.55
2018-12-12T00:54:50.605Z,95073.20
2018-12-12T00:57:22.405Z,95075.79
2018-12-12T00:59:53.015Z,95074.71
2018-12-12T01:02:23.599Z,95075.34
2018-12-12T01:04:54.438Z,95080.95
2018-12-12T01:07:25.211Z,95070.47
2018-12-12T01:09:55.823Z,95076.45
2018-12-12T01:12:26.467Z,95077.20
2018-12-12T01:14:57.397Z,95076.36
2018-12-12T01:17:28.375Z,95080.84
2018-12-12T01:19:59.615Z,95078.28
2018-12-12T01:22:30.595Z,95077.28
2018-12-12T01:25:01.495Z,95074.77
2018-12-12T01:27:32.709Z,95072.13
2018-12-12T01:30:03.646Z,95076.45
2018-12-12T01:32:34.803Z,95074.77
2018-12-12T01:35:06.552Z,95076.23
2018-12-12T01:37:37.369Z,95077.80
2018-12-12T01:40:09.383Z,95072.66
2018-12-12T01:42:40.219Z,95075.09
2018-12-12T01:45:11.127Z,95074.53
2018-12-12T01:47:41.965Z,95078.31
2018-12-12T01:50:12.864Z,95078.52
2018-12-12T01:52:43.661Z,95075.48
2018-12-12T01:55:15.096Z,95075.02
2018-12-12T01:57:45.899Z,95076.38
2018-12-12T02:00:16.737Z,95081.83
2018-12-12T02:02:47.515Z,95078.98
2018-12-12T02:05:18.113Z,95091.56
2018-12-12T02:07:49.369Z,95090.30
2018-12-12T02:10:20.735Z,95098.56
2018-12-12T02:13:01.924Z,95097.45
2018-12-12T02:15:32.962Z,95096.92
2018-12-12T02:18:03.949Z,95085.94
2018-12-12T02:20:35.139Z,95080.90
2018-12-12T02:23:05.957Z,95079.33
2018-12-12T02:25:36.914Z,95082.89
2018-12-12T02:28:07.649Z,95081.06
2018-12-12T02:30:38.410Z,95084.07
2018-12-12T02:33:09.014Z,95080.38
2018-12-12T02:35:39.917Z,95075.91
2018-12-12T02:38:10.634Z,95078.30
2018-12-12T02:40:41.419Z,95075.27
2018-12-12T02:43:12.200Z,95071.88
2018-12-12T02:45:43.084Z,95070.31
2018-12-12T02:48:15.776Z,95067.91
2018-12-12T02:50:46.714Z,95069.19
2018-12-12T02:53:17.575Z,95071.20
2018-12-12T02:55:48.491Z,95070.13
2018-12-12T02:58:19.351Z,95069.02
2018-12-12T03:00:50.186Z,95067.40
2018-12-12T03:03:20.995Z,95063.66
2018-12-12T03:05:51.847Z,95062.27
2018-12-12T03:08:22.600Z,95063.34
2018-12-12T03:10:53.529Z,95056.27
2018-12-12T03:13:24.446Z,95061.07
2018-12-12T03:15:55.475Z,95061.17
2018-12-12T03:18:26.447Z,95055.32
2018-12-12T03:20:57.304Z,95049.22
2018-12-12T03:23:28.066Z,95059.23
2018-12-12T03:25:58.993Z,95067.13
2018-12-12T03:28:29.919Z,95062.63
2018-12-12T03:31:00.459Z,95064.53
2018-12-12T03:33:31.310Z,95064.91
2018-12-12T03:36:02.197Z,95060.16
2018-12-12T03:38:32.736Z,95057.86
2018-12-12T03:41:04.557Z,95063.44
2018-12-12T03:43:35.395Z,95064.98
2018-12-12T03:46:06.915Z,95069.19
2018-12-12T03:48:37.824Z,95071.12
2018-12-12T03:51:08.827Z,95075.41
2018-12-12T03:53:39.589Z,95071.66
2018-12-12T03:56:10.191Z,95070.09
2018-12-12T03:58:40.767Z,95075.97
2018-12-12T04:01:12.539Z,95074.50
2018-12-12T04:03:43.602Z,95077.94
2018-12-12T04:06:14.683Z,95078.75
2018-12-12T04:08:45.590Z,95083.33
2018-12-12T04:11:16.777Z,95088.02
2018-12-12T04:13:47.527Z,95090.45
2018-12-12T04:16:18.728Z,95097.06
2018-12-12T04:18:50.039Z,95100.70
2018-12-12T04:21:22.617Z,95099.83
2018-12-12T04:23:53.440Z,95091.74
2018-12-12T04:26:24.379Z,95091.77
2018-12-12T04:28:54.986Z,95098.45
2018-12-12T04:31:26.030Z,95098.30
2018-12-12T04:33:56.828Z,95097.68
2018-12-12T04:36:27.946Z,95102.61
2018-12-12T04:38:58.842Z,95099.58
2018-12-12T04:41:29.999Z,95109.66
2018-12-12T04:44:00.966Z,95107.77
2018-12-12T04:46:31.933Z,95111.44
2018-12-12T04:49:02.566Z,95114.48
2018-12-12T04:51:33.392Z,95116.76
2018-12-12T04:54:04.179Z,95117.44
2018-12-12T04:56:36.184Z,95118.44
2018-12-12T04:59:07.409Z,95118.26
2018-12-12T05:01:38.417Z,95119.36
2018-12-12T05:04:09.343Z,95120.78
2018-12-12T05:06:40.366Z,95120.56
2018-12-12T05:09:11.384Z,95131.09
2018-12-12T05:11:42.177Z,95127.62
2018-12-12T05:14:12.911Z,95122.94
2018-12-12T05:16:43.809Z,95129.39
2018-12-12T05:19:14.720Z,95134.33
2018-12-12T05:21:45.377Z,95134.89
2018-12-12T05:24:16.130Z,95141.74
2018-12-12T05:26:47.309Z,95138.01
2018-12-12T05:29:17.974Z,95144.06
2018-12-12T05:31:48.792Z,95141.76
2018-12-12T05:34:19.367Z,95133.13
2018-12-12T05:36:53.935Z,95146.44
2018-12-12T05:39:24.814Z,95144.52
2018-12-12T05:41:55.591Z,95137.44
2018-12-12T05:44:26.302Z,95141.31
2018-12-12T05:46:56.859Z,95140.56
2018-12-12T05:49:27.584Z,95147.08
2018-12-12T05:51:58.395Z,95145.51
2018-12-12T05:54:28.914Z,95147.34
2018-12-12T05:56:59.852Z,95145.11
2018-12-12T05:59:30.582Z,95152.92
2018-12-12T06:02:01.130Z,95156.56
2018-12-12T06:04:31.737Z,95155.11
2018-12-12T06:07:02.529Z,95158.63
2018-12-12T06:09:33.131Z,95156.50
2018-12-12T06:12:03.777Z,95155.41
2018-12-12T06:14:34.354Z,95156.67
2018-12-12T06:17:05.088Z,95163.00
2018-12-12T06:19:35.858Z,95166.94
2018-12-12T06:22:07.447Z,95169.30
2018-12-12T06:24:38.254Z,95174.52
2018-12-12T06:27:09.303Z,95170.84
2018-12-12T06:29:39.997Z,95183.28
2018-12-12T06:32:10.866Z,95177.68
2018-12-12T06:34:41.602Z,95185.98
2018-12-12T06:37:12.347Z,95188.55
2018-12-12T06:39:42.876Z,95193.48
2018-12-12T06:42:13.783Z,95196.96
2018-12-12T06:44:44.586Z,95195.23
2018-12-12T06:47:15.432Z,95189.33
2018-12-12T06:49:46.536Z,95190.25
2018-12-12T06:52:17.456Z,95184.80
2018-12-12T06:54:48.207Z,95185.03
2018-12-12T06:57:19.007Z,95177.94
2018-12-12T06:59:49.840Z,95179.40
2018-12-12T07:02:20.654Z,95197.51
2018-12-12T07:04:51.507Z,95191.45
2018-12-12T07:07:22.638Z,95189.77
2018-12-12T07:09:53.098Z,95197.70
2018-12-12T07:12:24.447Z,95196.69
2018-12-12T07:14:54.973Z,95196.42
2018-12-12T07:17:25.561Z,95193.84
2018-12-12T07:19:56.451Z,95203.30
2018-12-12T07:22:27.030Z,95191.87
2018-12-12T07:24:57.949Z,95194.55
2018-12-12T07:27:28.947Z,95189.17
2018-12-12T07:29:59.769Z,95202.66
2018-12-12T07:32:30.869Z,95204.61
2018-12-12T07:35:01.941Z,95217.92
2018-12-12T07:37:32.889Z,95208.20
2018-12-12T07:40:03.650Z,95214.87
2018-12-12T07:42:34.429Z,95216.81
2018-12-12T07:45:10.599Z,95219.83
2018-12-12T07:47:43.201Z,95217.36
2018-12-12T07:50:31.400Z,95221.23
2018-12-12T07:53:07.666Z,95225.21
2018-12-12T07:55:38.532Z,95224.70
2018-12-12T07:58:09.593Z,95225.36
2018-12-12T08:00:40.312Z,95234.81
2018-12-12T08:03:11.229Z,95233.29
2018-12-12T08:05:43.321Z,95236.83
2018-12-12T08:08:14.214Z,95232.82
2018-12-12T08:10:45.017Z,95240.65
2018-12-12T08:13:15.972Z,95241.44
2018-12-12T08:15:46.952Z,95243.29
2018-12-12T08:18:17.624Z,95247.32
2018-12-12T08:20:48.738Z,95254.78
2018-12-12T08:23:20.097Z,95249.03
2018-12-12T08:25:50.809Z,95250.06
2018-12-12T08:28:21.537Z,95252.89
2018-12-12T08:30:52.076Z,95252.73
2018-12-12T08:33:22.967Z,95256.43
2018-12-12T08:35:53.836Z,95261.05
2018-12-12T08:38:24.698Z,95261.48
2018-12-12T08:40:55.621Z,95264.81
2018-12-12T08:43:26.767Z,95258.30
2018-12-12T08:45:57.321Z,95262.36
2018-12-12T08:48:28.143Z,95263.51
2018-12-12T08:50:59.214Z,95264.00
2018-12-12T08:53:30.092Z,95264.58
2018-12-12T08:56:00.757Z,95263.72
2018-12-12T08:58:38.735Z,95269.58
2018-12-12T09:01:09.667Z,95268.36
2018-12-12T09:03:40.738Z,95265.33
2018-12-12T09:06:11.300Z,95262.43
2018-12-12T09:08:42.097Z,95262.11
2018-12-12T09:11:13.264Z,95253.95
2018-12-12T09:13:44.625Z,95247.28
2018-12-12T09:16:15.736Z,95254.75
2018-12-12T09:18:46.890Z,95250.30
2018-12-12T09:21:18.004Z,95253.54
2018-12-12T09:23:49.022Z,95256.97
2018-12-12T09:26:20.092Z,95256.88
2018-12-12T09:28:51.151Z,95254.88
2018-12-12T09:31:23.923Z,95251.54
2018-12-12T09:33:56.760Z,95255.98
2018-12-12T09:36:27.641Z,95247.98
2018-12-12T09:38:58.566Z,95254.02
2018-12-12T09:41:29.543Z,95249.64
2018-12-12T09:44:00.492Z,95256.12
2018-12-12T09:46:30.992Z,95251.22
2018-12-12T09:49:01.816Z,95251.08
2018-12-12T09:51:34.356Z,95244.89
2018-12-12T09:54:07.096Z,95240.97
2018-12-12T09:56:38.104Z,95241.98
2018-12-12T09:59:09.301Z,95235.94
2018-12-12T10:01:40.171Z,95228.70
2018-12-12T10:04:11.360Z,95233.23
2018-12-12T10:06:42.107Z,95228.09
2018-12-12T10:09:13.093Z,95222.31
2018-12-12T10:11:43.997Z,95216.95
2018-12-12T10:14:14.583Z,95212.31
2018-12-12T10:16:45.663Z,95210.27
2018-12-12T10:19:16.921Z,95213.91
2018-12-12T10:21:48.141Z,95210.20
2018-12-12T10:24:20.250Z,95209.38
2018-12-12T10:26:51.219Z,95215.36
2018-12-12T10:29:22.064Z,95208.94
2018-12-12T10:31:52.690Z,95211.68
2018-12-12T10:34:24.090Z,95199.75
2018-12-12T10:36:55.078Z,95199.47
2018-12-12T10:39:25.765Z,95199.50
2018-12-12T10:41:56.740Z,95198.11
2018-12-12T10:44:27.642Z,95194.41
2018-12-12T10:46:58.167Z,95193.81
2018-12-12T10:49:29.186Z,95188.56
2018-12-12T10:51:59.851Z,95196.67
2018-12-12T10:54:30.297Z,95195.27
2018-12-12T10:57:01.234Z,95194.26
2018-12-12T10:59:31.989Z,95190.77
2018-12-12T11:02:07.748Z,95194.94
2018-12-12T11:04:38.666Z,95186.81
2018-12-12T11:07:09.329Z,95184.59
2018-12-12T11:09:40.772Z,95188.46
2018-12-12T11:12:11.786Z,95184.30
2018-12-12T11:14:42.533Z,95186.85
2018-12-12T11:17:13.173Z,95186.21
2018-12-12T11:19:44.036Z,95176.51
2018-12-12T11:22:14.966Z,95176.03
2018-12-12T11:24:46.161Z,95170.25
2018-12-12T11:27:17.000Z,95170.98
2018-12-12T11:29:48.161Z,95173.89
2018-12-12T11:32:19.102Z,95169.16
2018-12-12T11:34:49.896Z,95166.48
2018-12-12T11:37:20.427Z,95167.53
2018-12-12T11:39:51.039Z,95168.02
2018-12-12T11:42:21.824Z,95173.52
2018-12-12T11:44:52.344Z,95169.23
2018-12-12T11:47:23.034Z,95170.76
2018-12-12T11:49:53.966Z,95172.42
2018-12-12T11:52:25.553Z,95172.59
2018-12-12T11:54:56.235Z,95171.70
2018-12-12T11:57:27.842Z,95165.69
2018-12-12T12:00:05.222Z,95161.73
2018-12-12T12:02:35.906Z,95166.42
2018-12-12T12:05:07.242Z,95165.79
2018-12-12T12:07:38.127Z,95170.34
2018-12-12T12:10:11.126Z,95165.15
2018-12-12T12:12:41.962Z,95168.16
2018-12-12T12:15:13.008Z,95160.33
2018-12-12T12:17:43.691Z,95171.88
2018-12-12T12:20:14.735Z,95164.95
2018-12-12T12:22:45.471Z,95169.97
2018-12-12T12:25:16.341Z,95170.23
2018-12-12T12:27:47.229Z,95175.84
2018-12-12T12:30:18.020Z,95172.11
2018-12-12T12:32:48.696Z,95174.73
2018-12-12T12:35:19.490Z,95176.77
2018-12-12T12:37:50.352Z,95186.97
2018-12-12T12:40:21.115Z,95194.06
2018-12-12T12:42:51.940Z,95191.73
2018-12-12T12:45:22.798Z,95189.62
2018-12-12T12:47:53.598Z,95192.13
2018-12-12T12:50:24.768Z,95192.11
2018-12-12T12:52:55.576Z,95192.92
2018-12-12T12:55:26.600Z,95195.48
2018-12-12T12:57:57.528Z,95191.52
2018-12-12T13:00:28.695Z,95196.80
2018-12-12T13:02:59.643Z,95195.53
2018-12-12T13:05:30.606Z,95198.23
2018-12-12T13:08:01.280Z,95207.64
2018-12-12T13:10:32.284Z,95202.81
2018-12-12T13:13:03.678Z,95204.59
2018-12-12T13:15:35.289Z,95204.11
2018-12-12T13:18:06.830Z,95211.67
2018-12-12T13:20:37.661Z,95206.33
2018-12-12T13:23:08.241Z,95213.66
2018-12-12T13:25:38.875Z,95212.75
2018-12-12T13:28:09.432Z,95212.14
2018-12-12T13:30:40.651Z,95211.60
2018-12-12T13:33:11.775Z,95217.81
2018-12-12T13:35:43.095Z,95219.02
2018-12-12T13:38:13.936Z,95221.84
2018-12-12T13:40:44.844Z,95221.60
2018-12-12T13:43:15.382Z,95229.19
2018-12-12T13:45:47.047Z,95225.50
2018-12-12T13:48:17.547Z,95232.00
2018-12-12T13:50:48.175Z,95238.45
2018-12-12T13:53:18.662Z,95234.27
2018-12-12T13:55:49.494Z,95244.39
2018-12-12T13:58:20.421Z,95243.06
2018-12-12T14:00:51.124Z,95246.27
2018-12-12T14:03:21.799Z,95240.44
2018-12-12T14:05:52.321Z,95249.89
2018-12-12T14:08:22.878Z,95255.36
2018-12-12T14:10:53.543Z,95260.47
2018-12-12T14:13:24.400Z,95256.53
2018-12-12T14:15:55.129Z,95265.48
2018-12-12T14:18:25.937Z,95261.07
2018-12-12T14:20:56.742Z,95256.93
2018-12-12T14:23:28.820Z,95259.21
2018-12-12T14:25:59.796Z,95259.06
2018-12-12T14:28:30.605Z,95260.19
2018-12-12T14:31:01.726Z,95257.84
2018-12-12T14:33:32.902Z,95266.23
2018-12-12T14:36:03.794Z,95262.48
2018-12-12T14:38:34.475Z,95259.16
2018-12-12T14:41:05.541Z,95262.88
2018-12-12T14:43:36.103Z,95268.34
2018-12-12T14:46:06.641Z,95266.13
2018-12-12T14:48:37.563Z,95265.66
2018-12-12T14:51:08.122Z,95271.34
2018-12-12T14:53:38.941Z,95265.61
2018-12-12T14:56:09.797Z,95275.73
2018-12-12T14:58:41.233Z,95269.80
2018-12-12T15:01:12.048Z,95270.97
2018-12-12T15:03:42.633Z,95275.77
2018-12-12T15:06:13.408Z,95274.33
2018-12-12T15:08:44.197Z,95272.93
2018-12-12T15:11:14.938Z,95270.22
2018-12-12T15:13:45.690Z,95270.36
2018-12-12T15:16:16.629Z,95273.92
2018-12-12T15:18:47.328Z,95269.59
2018-12-12T15:21:18.099Z,95271.40
2018-12-12T15:23:49.025Z,95275.73
2018-12-12T15:26:19.672Z,95272.00
2018-12-12T15:28:50.477Z,95271.81
2018-12-12T15:31:21.461Z,95276.86
2018-12-12T15:33:52.438Z,95284.03
2018-12-12T15:36:23.195Z,95283.09
2018-12-12T15:38:54.000Z,95282.13
2018-12-12T15:41:24.700Z,95282.05
2018-12-12T15:43:55.343Z,95288.61
2018-12-12T15:46:26.024Z,95284.64
2018-12-12T15:48:56.862Z,95284.54
2018-12-12T15:51:27.645Z,95289.53
2018-12-12T15:53:58.439Z,95288.55
2018-12-12T15:56:29.185Z,95282.80
2018-12-12T15:58:59.986Z,95286.60
2018-12-12T16:01:30.858Z,95288.34
2018-12-12T16:04:01.665Z,95289.33
2018-12-12T16:06:32.515Z,95291.30
2018-12-12T16:09:03.048Z,95288.20
2018-12-12T16:11:35.763Z,95289.63
2018-12-12T16:14:06.590Z,95286.44
2018-12-12T16:16:37.242Z,95288.61
2018-12-12T16:19:07.739Z,95288.75
2018-12-12T16:21:38.616Z,95287.46
2018-12-12T16:24:09.372Z,95288.34
2018-12-12T16:26:40.273Z,95288.86
2018-12-12T16:29:11.040Z,95286.50
2018-12-12T16:31:42.050Z,95289.03
2018-12-12T16:34:12.785Z,95289.69
2018-12-12T16:36:43.536Z,95295.25
2018-12-12T16:39:14.018Z,95291.63
2018-12-12T16:41:44.978Z,95292.43
2018-12-12T16:44:15.659Z,95294.97
2018-12-12T16:46:51.468Z,95294.42
2018-12-12T16:49:22.005Z,95293.33
2018-12-12T16:51:52.935Z,95295.72
2018-12-12T16:54:23.474Z,95291.58
2018-12-12T16:56:54.008Z,95289.85
2018-12-12T16:59:24.655Z,95289.73
2018-12-12T17:01:55.521Z,95292.09
2018-12-12T17:04:26.296Z,95293.44
2018-12-12T17:06:56.796Z,95303.03
2018-12-12T17:09:27.644Z,95302.08
2018-12-12T17:11:58.417Z,95301.97
2018-12-12T17:14:29.307Z,95304.27
2018-12-12T17:17:00.148Z,95311.95
2018-12-12T17:19:30.949Z,95319.04
2018-12-12T17:22:01.809Z,95313.00
2018-12-12T17:24:32.826Z,95317.92
2018-12-12T17:27:03.463Z,95313.89
2018-12-12T17:29:34.300Z,95312.41
2018-12-12T17:32:05.195Z,95322.72
2018-12-12T17:34:35.921Z,95320.25
2018-12-12T17:37:06.613Z,95326.01
2018-12-12T17:39:37.450Z,95325.94
2018-12-12T17:42:08.123Z,95330.86
2018-12-12T17:44:40.037Z,95323.89
2018-12-12T17:47:10.886Z,95316.56
2018-12-12T17:49:41.834Z,95311.34
2018-12-12T17:52:12.717Z,95311.30
2018-12-12T17:54:43.427Z,95306.63
2018-12-12T17:57:13.943Z,95307.26
2018-12-12T17:59:45.827Z,95307.45
2018-12-12T18:02:16.740Z,95302.88
2018-12-12T18:05:15.115Z,95300.34
2018-12-12T18:07:42.436Z,95312.76
2018-12-12T18:10:13.383Z,95325.23
2018-12-12T18:12:44.175Z,95325.27
2018-12-12T18:15:16.761Z,95321.66
2018-12-12T18:17:49.574Z,95330.86
2018-12-12T18:20:20.980Z,95333.29
2018-12-12T18:22:51.623Z,95338.94
2018-12-12T18:25:24.219Z,95337.37
2018-12-12T18:27:54.958Z,95334.73
2018-12-12T18:30:25.931Z,95337.30
2018-12-12T18:32:58.468Z,95341.80
2018-12-12T18:35:45.736Z,95335.91
2018-12-12T18:38:16.578Z,95335.23
2018-12-12T18:40:47.395Z,95334.11
2018-12-12T18:43:19.947Z,95344.59
2018-12-12T18:45:50.445Z,95339.05
2018-12-12T18:48:21.350Z,95339.33
2018-12-12T18:50:53.893Z,95341.45
2018-12-12T18:53:26.498Z,95349.09
2018-12-12T18:55:59.000Z,95345.38
2018-12-12T18:58:29.841Z,95343.70
2018-12-12T19:01:00.441Z,95346.67
2018-12-12T19:03:31.096Z,95338.05
2018-12-12T19:06:01.873Z,95347.23
2018-12-12T19:08:32.406Z,95351.81
2018-12-12T19:11:02.873Z,95347.56
2018-12-12T19:13:33.405Z,95349.70
2018-12-12T19:16:04.240Z,95352.95
2018-12-12T19:18:35.000Z,95358.41
2018-12-12T19:21:05.864Z,95356.52
2018-12-12T19:23:37.130Z,95352.47
2018-12-12T19:26:07.854Z,95356.53
2018-12-12T19:28:38.710Z,95357.45
2018-12-12T19:31:10.434Z,95359.66
2018-12-12T19:33:41.182Z,95356.10
2018-12-12T19:36:12.004Z,95361.31
2018-12-12T19:38:42.955Z,95358.66
2018-12-12T19:41:13.721Z,95363.99
2018-12-12T19:43:44.499Z,95358.75
2018-12-12T19:46:15.272Z,95358.66
2018-12-12T19:48:45.847Z,95361.23
2018-12-12T19:51:16.952Z,95354.13
2018-12-12T19:53:49.222Z,95360.48
2018-12-12T19:56:20.015Z,95358.44
2018-12-12T19:58:51.924Z,95360.03
2018-12-12T20:01:22.691Z,95360.39
2018-12-12T20:03:53.544Z,95350.27
2018-12-12T20:06:24.628Z,95344.95
2018-12-12T20:08:55.169Z,95348.25
2018-12-12T20:11:25.924Z,95350.53
2018-12-12T20:13:56.814Z,95352.55
2018-12-12T20:16:27.828Z,95344.44
2018-12-12T20:18:58.608Z,95344.83
2018-12-12T20:21:29.324Z,95346.47
2018-12-12T20:23:59.886Z,95346.95
2018-12-12T20:26:30.803Z,95347.70
2018-12-12T20:29:01.672Z,95348.98
2018-12-12T20:31:32.557Z,95351.13
2018-12-12T20:34:03.400Z,95357.98
2018-12-12T20:36:34.892Z,95353.21
2018-12-12T20:39:07.923Z,95352.47
2018-12-12T20:41:40.652Z,95351.54
2018-12-12T20:44:11.779Z,95357.59
2018-12-12T20:46:43.147Z,95353.48
2018-12-12T20:49:14.115Z,95355.61
2018-12-12T20:51:44.922Z,95355.61
2018-12-12T20:54:15.823Z,95345.20
2018-12-12T20:56:46.427Z,95348.70
2018-12-12T20:59:16.994Z,95356.14
2018-12-12T21:01:47.465Z,95361.29
2018-12-12T21:04:18.111Z,95357.79
2018-12-12T21:06:48.745Z,95356.52
2018-12-12T21:09:19.398Z,95353.73
2018-12-12T21:11:49.938Z,95358.87
2018-12-12T21:14:20.468Z,95352.03
2018-12-12T21:16:50.995Z,95362.95
2018-12-12T21:19:21.520Z,95368.28
2018-12-12T21:21:52.127Z,95355.44
2018-12-12T21:24:23.238Z,95360.78
2018-12-12T21:26:53.963Z,95358.02
2018-12-12T21:29:24.529Z,95362.62
2018-12-12T21:31:55.082Z,95365.00
2018-12-12T21:34:25.643Z,95356.91
2018-12-12T21:36:56.242Z,95359.56
2018-12-12T21:39:26.792Z,95368.59
2018-12-12T21:41:57.362Z,95369.59
2018-12-12T21:44:27.938Z,95369.16
2018-12-12T21:46:58.413Z,95369.41
2018-12-12T21:49:29.241Z,95366.84
2018-12-12T21:52:00.136Z,95368.86
2018-12-12T21:54:30.651Z,95372.53
2018-12-12T21:57:04.110Z,95378.05
2018-12-12T21:59:35.251Z,95372.52
2018-12-12T22:02:06.187Z,95372.80
2018-12-12T22:04:37.421Z,95374.91
2018-12-12T22:07:08.271Z,95371.43
2018-12-12T22:09:39.343Z,95372.80
2018-12-12T22:12:10.197Z,95373.19
2018-12-12T22:14:40.923Z,95370.89
2018-12-12T22:17:11.843Z,95371.70
2018-12-12T22:19:42.637Z,95366.03
2018-12-12T22:22:13.553Z,95364.09
2018-12-12T22:24:44.133Z,95365.02
2018-12-12T22:27:14.684Z,95366.49
2018-12-12T22:29:45.247Z,95364.38
2018-12-12T22:32:16.151Z,95366.49
2018-12-12T22:34:46.809Z,95364.92
2018-12-12T22:37:17.366Z,95361.41
2018-12-12T22:39:48.227Z,95361.63
2018-12-12T22:42:18.735Z,95356.84
2018-12-12T22:44:49.554Z,95354.09
2018-12-12T22:47:20.517Z,95356.83
2018-12-12T22:49:52.320Z,95354.91
2018-12-12T22:52:23.082Z,95354.72
2018-12-12T22:54:53.731Z,95355.09
2018-12-12T22:57:24.683Z,95350.77
2018-12-12T22:59:55.345Z,95351.50
2018-12-12T23:02:26.798Z,95357.20
2018-12-12T23:04:57.618Z,95348.37
2018-12-12T23:07:28.571Z,95347.38
2018-12-12T23:09:59.546Z,95352.59
2018-12-12T23:12:30.687Z,95351.73
2018-12-12T23:15:01.550Z,95344.18
2018-12-12T23:17:33.592Z,95343.39
2018-12-12T23:20:04.805Z,95351.08
2018-12-12T23:22:35.812Z,95341.66
2018-12-12T23:25:06.790Z,95345.56
2018-12-12T23:27:37.571Z,95351.13
2018-12-12T23:30:09.112Z,95350.94
2018-12-12T23:32:40.059Z,95348.92
2018-12-12T23:35:11.050Z,95354.63
2018-12-12T23:37:41.853Z,95349.66
2018-12-12T23:40:12.822Z,95355.34
2018-12-12T23:42:43.788Z,95357.88
2018-12-12T23:45:14.807Z,95364.93
2018-12-12T23:47:45.659Z,95359.80
2018-12-12T23:50:16.255Z,95359.80
2018-12-12T23:52:47.058Z,95367.09
2018-12-12T23:55:17.905Z,95367.95
2018-12-12T23:57:48.888Z,95363.98
